Cape Talara — V7TW5 — position and weather

sailwx.info

Track history (hours):
 
Tides and Currents Weather Stations Pressure Air Temp Water Temp Dewpoint Dewpoint Depression Visibility Wind Speed Wind Dir Waves Ship Positions

Cape Talara

Last reported at 2018-Apr-25 12:42 UTC. Time now 2018-May-22 07:50 UTC.
Position N 28°33' W 093°25'.
Warning: this ship's position is 26 days out of date.

Length 228 m; draft 11.9 m.

Type: Tanker. MMSI: 538003898.

Date/timePositionNaut miles runAvg speedWind from/ knotsBaromVisibWave heightAir tempDewpointWater temp
2018-Apr-25 12:42N 28°33' W 093°25'212.4
2018-Apr-25 12:30N 28°34' W 093°27'612.4
2018-Apr-25 12:00N 28°38' W 093°32'612.2
2018-Apr-25 11:30N 28°42' W 093°38'612.1
2018-Apr-25 10:59N 28°45' W 093°44'612.2
2018-Apr-25 10:30N 28°49' W 093°49'612.1
2018-Apr-25 10:00N 28°50' W 093°56'612.2
2018-Apr-25 09:30N 28°52' W 094°03'612.5
2018-Apr-25 09:00N 28°53' W 094°10'612.6
2018-Apr-25 08:30N 28°54' W 094°17'612.4
2018-Apr-25 08:00N 28°56' W 094°24'711.9
2018-Apr-25 07:23N 29°03' W 094°25'511.9
2018-Apr-25 07:00N 29°07' W 094°26'611.8
2018-Apr-25 06:30N 29°12' W 094°31'611.6
2018-Apr-25 06:00N 29°16' W 094°35'610.2
2018-Apr-25 05:28N 29°20' W 094°40'510.7
2018-Apr-25 04:57N 29°21' W 094°46'510.9
2018-Apr-25 04:30N 29°24' W 094°49'510.6
2018-Apr-25 04:00N 29°29' W 094°52'510.2
2018-Apr-25 03:30N 29°34' W 094°55'510.2
2018-Apr-25 03:00N 29°38' W 094°58'  
2018-Apr-22 14:18N 29°45' W 095°10'2 3.8
2018-Apr-22 13:49N 29°44' W 095°08'2 5.2
2018-Apr-22 13:23N 29°45' W 095°06'2 5.2
2018-Apr-22 13:00N 29°44' W 095°04'3 5.7
2018-Apr-22 12:29N 29°42' W 095°01'4 8.0
2018-Apr-22 12:00N 29°39' W 094°58'5 9.5
2018-Apr-22 11:31N 29°35' W 094°56'510.8
2018-Apr-22 11:01N 29°31' W 094°53'  
2018-Apr-18 07:27N 29°19' W 094°33'0 0.0
2018-Apr-18 06:42N 29°19' W 094°33'10 0.6
2018-Apr-17 14:16N 29°21' W 094°44'0 0.1
2018-Apr-17 13:55N 29°21' W 094°44'0 0.0
2018-Apr-17 13:22N 29°21' W 094°44'0 0.0
2018-Apr-17 12:01N 29°21' W 094°44'0 0.0
2018-Apr-17 11:58N 29°21' W 094°44'0 0.0
2018-Apr-17 11:28N 29°21' W 094°44'0 0.0
2018-Apr-17 10:07N 29°21' W 094°44'0 0.0
2018-Apr-17 09:52N 29°21' W 094°44'0 0.1
2018-Apr-17 09:28N 29°21' W 094°44'0 0.2
2018-Apr-17 08:58N 29°21' W 094°44'0 0.1
2018-Apr-17 08:28N 29°21' W 094°44'0 0.1
2018-Apr-17 07:55N 29°21' W 094°44'  
Track history (hours):
 
Tides and Currents Weather Stations Pressure Air Temp Water Temp Dewpoint Dewpoint Depression Visibility Wind Speed Wind Dir Waves Ship Positions

Cape Talara

Last reported at 2018-Apr-25 12:42 UTC. Time now 2018-May-22 07:50 UTC.
Position N 28°33' W 093°25'.
Warning: this ship's position is 26 days out of date.

Length 228 m; draft 11.9 m.

Type: Tanker. MMSI: 538003898.

Date/timePositionNaut miles runAvg speedWind from/ knotsBaromVisibWave heightAir tempDewpointWater temp
2018-Apr-25 12:42N 28°33' W 093°25'212.4
2018-Apr-25 12:30N 28°34' W 093°27'612.4
2018-Apr-25 12:00N 28°38' W 093°32'612.2
2018-Apr-25 11:30N 28°42' W 093°38'612.1
2018-Apr-25 10:59N 28°45' W 093°44'612.2
2018-Apr-25 10:30N 28°49' W 093°49'612.1
2018-Apr-25 10:00N 28°50' W 093°56'612.2
2018-Apr-25 09:30N 28°52' W 094°03'612.5
2018-Apr-25 09:00N 28°53' W 094°10'612.6
2018-Apr-25 08:30N 28°54' W 094°17'612.4
2018-Apr-25 08:00N 28°56' W 094°24'711.9
2018-Apr-25 07:23N 29°03' W 094°25'511.9
2018-Apr-25 07:00N 29°07' W 094°26'611.8
2018-Apr-25 06:30N 29°12' W 094°31'611.6
2018-Apr-25 06:00N 29°16' W 094°35'610.2
2018-Apr-25 05:28N 29°20' W 094°40'510.7
2018-Apr-25 04:57N 29°21' W 094°46'510.9
2018-Apr-25 04:30N 29°24' W 094°49'510.6
2018-Apr-25 04:00N 29°29' W 094°52'510.2
2018-Apr-25 03:30N 29°34' W 094°55'510.2
2018-Apr-25 03:00N 29°38' W 094°58'  
2018-Apr-22 14:18N 29°45' W 095°10'2 3.8
2018-Apr-22 13:49N 29°44' W 095°08'2 5.2
2018-Apr-22 13:23N 29°45' W 095°06'2 5.2
2018-Apr-22 13:00N 29°44' W 095°04'3 5.7
2018-Apr-22 12:29N 29°42' W 095°01'4 8.0
2018-Apr-22 12:00N 29°39' W 094°58'5 9.5
2018-Apr-22 11:31N 29°35' W 094°56'510.8
2018-Apr-22 11:01N 29°31' W 094°53'  
2018-Apr-18 07:27N 29°19' W 094°33'0 0.0
2018-Apr-18 06:42N 29°19' W 094°33'10 0.6
2018-Apr-17 14:16N 29°21' W 094°44'0 0.1
2018-Apr-17 13:55N 29°21' W 094°44'0 0.0
2018-Apr-17 13:22N 29°21' W 094°44'0 0.0
2018-Apr-17 12:01N 29°21' W 094°44'0 0.0
2018-Apr-17 11:58N 29°21' W 094°44'0 0.0
2018-Apr-17 11:28N 29°21' W 094°44'0 0.0
2018-Apr-17 10:07N 29°21' W 094°44'0 0.0
2018-Apr-17 09:52N 29°21' W 094°44'0 0.1
2018-Apr-17 09:28N 29°21' W 094°44'0 0.2
2018-Apr-17 08:58N 29°21' W 094°44'0 0.1
2018-Apr-17 08:28N 29°21' W 094°44'0 0.1
2018-Apr-17 07:55N 29°21' W 094°44'  

Dump ship's entire track history